sensor_id;sensor_type;location;lat;lon;timestamp;P1;durP1;ratioP1;P2;durP2;ratioP2
49502;SDS011;35409;48.776;9.204;2023-06-10T00:01:21;6.35;;;5.28;;
49502;SDS011;35409;48.776;9.204;2023-06-10T00:03:49;5.65;;;5.15;;
49502;SDS011;35409;48.776;9.204;2023-06-10T00:06:15;5.70;;;5.20;;
49502;SDS011;35409;48.776;9.204;2023-06-10T00:08:40;8.00;;;5.72;;
49502;SDS011;35409;48.776;9.204;2023-06-10T00:11:07;5.50;;;5.00;;
49502;SDS011;35409;48.776;9.204;2023-06-10T00:13:32;6.43;;;5.70;;
49502;SDS011;35409;48.776;9.204;2023-06-10T00:15:58;6.13;;;5.53;;
49502;SDS011;35409;48.776;9.204;2023-06-10T00:18:24;6.72;;;6.05;;
49502;SDS011;35409;48.776;9.204;2023-06-10T00:20:52;9.32;;;5.65;;
49502;SDS011;35409;48.776;9.204;2023-06-10T00:23:20;6.72;;;5.63;;
49502;SDS011;35409;48.776;9.204;2023-06-10T00:25:46;5.95;;;5.20;;
49502;SDS011;35409;48.776;9.204;2023-06-10T00:28:12;6.47;;;5.75;;
49502;SDS011;35409;48.776;9.204;2023-06-10T00:30:38;8.07;;;5.88;;
49502;SDS011;35409;48.776;9.204;2023-06-10T00:33:04;8.20;;;6.75;;
49502;SDS011;35409;48.776;9.204;2023-06-10T00:35:30;8.30;;;6.45;;
49502;SDS011;35409;48.776;9.204;2023-06-10T00:37:55;6.97;;;5.95;;
49502;SDS011;35409;48.776;9.204;2023-06-10T00:40:21;7.30;;;5.63;;
49502;SDS011;35409;48.776;9.204;2023-06-10T00:42:47;7.35;;;5.97;;
49502;SDS011;35409;48.776;9.204;2023-06-10T00:45:12;7.65;;;6.22;;
49502;SDS011;35409;48.776;9.204;2023-06-10T00:47:38;8.05;;;5.85;;
49502;SDS011;35409;48.776;9.204;2023-06-10T00:50:04;7.40;;;6.35;;
49502;SDS011;35409;48.776;9.204;2023-06-10T00:52:31;6.95;;;5.82;;
49502;SDS011;35409;48.776;9.204;2023-06-10T00:54:58;8.57;;;7.15;;
49502;SDS011;35409;48.776;9.204;2023-06-10T00:57:24;6.75;;;6.05;;
49502;SDS011;35409;48.776;9.204;2023-06-10T00:59:51;6.20;;;5.57;;
49502;SDS011;35409;48.776;9.204;2023-06-10T01:02:17;7.00;;;6.30;;
49502;SDS011;35409;48.776;9.204;2023-06-10T01:04:43;6.47;;;5.85;;
49502;SDS011;35409;48.776;9.204;2023-06-10T01:10:16;7.22;;;6.25;;
49502;SDS011;35409;48.776;9.204;2023-06-10T01:15:20;6.95;;;6.25;;
49502;SDS011;35409;48.776;9.204;2023-06-10T01:18:03;6.18;;;5.57;;
49502;SDS011;35409;48.776;9.204;2023-06-10T01:20:34;7.03;;;5.85;;
49502;SDS011;35409;48.776;9.204;2023-06-10T01:23:04;6.22;;;5.50;;
49502;SDS011;35409;48.776;9.204;2023-06-10T01:25:31;6.82;;;6.13;;
49502;SDS011;35409;48.776;9.204;2023-06-10T01:33:27;6.75;;;6.00;;
49502;SDS011;35409;48.776;9.204;2023-06-10T01:35:54;7.78;;;6.50;;
49502;SDS011;35409;48.776;9.204;2023-06-10T01:38:21;8.88;;;6.03;;
49502;SDS011;35409;48.776;9.204;2023-06-10T01:40:48;6.13;;;5.53;;
49502;SDS011;35409;48.776;9.204;2023-06-10T01:43:14;7.43;;;5.85;;
49502;SDS011;35409;48.776;9.204;2023-06-10T01:45:40;7.20;;;5.60;;
49502;SDS011;35409;48.776;9.204;2023-06-10T01:48:07;7.88;;;5.75;;
49502;SDS011;35409;48.776;9.204;2023-06-10T01:50:33;6.53;;;5.80;;
49502;SDS011;35409;48.776;9.204;2023-06-10T01:52:59;6.25;;;5.47;;
49502;SDS011;35409;48.776;9.204;2023-06-10T01:55:25;8.30;;;5.25;;
49502;SDS011;35409;48.776;9.204;2023-06-10T01:57:51;6.88;;;6.20;;
49502;SDS011;35409;48.776;9.204;2023-06-10T02:00:17;6.20;;;5.60;;
49502;SDS011;35409;48.776;9.204;2023-06-10T02:02:43;5.88;;;5.38;;
49502;SDS011;35409;48.776;9.204;2023-06-10T02:05:09;6.88;;;6.15;;
49502;SDS011;35409;48.776;9.204;2023-06-10T02:07:35;7.70;;;6.03;;
49502;SDS011;35409;48.776;9.204;2023-06-10T02:10:01;6.75;;;5.80;;
49502;SDS011;35409;48.776;9.204;2023-06-10T02:12:26;6.60;;;5.97;;
49502;SDS011;35409;48.776;9.204;2023-06-10T02:14:52;7.50;;;5.63;;
49502;SDS011;35409;48.776;9.204;2023-06-10T02:17:17;6.28;;;5.68;;
49502;SDS011;35409;48.776;9.204;2023-06-10T02:19:44;7.38;;;6.47;;
49502;SDS011;35409;48.776;9.204;2023-06-10T02:22:21;8.32;;;6.25;;
49502;SDS011;35409;48.776;9.204;2023-06-10T02:24:47;6.13;;;5.55;;
49502;SDS011;35409;48.776;9.204;2023-06-10T02:27:14;7.20;;;6.50;;
49502;SDS011;35409;48.776;9.204;2023-06-10T02:29:40;9.55;;;6.10;;
49502;SDS011;35409;48.776;9.204;2023-06-10T02:32:06;7.03;;;5.78;;
49502;SDS011;35409;48.776;9.204;2023-06-10T02:34:32;7.50;;;6.60;;
49502;SDS011;35409;48.776;9.204;2023-06-10T02:36:58;6.78;;;6.10;;
49502;SDS011;35409;48.776;9.204;2023-06-10T02:39:24;6.82;;;6.07;;
49502;SDS011;35409;48.776;9.204;2023-06-10T02:41:50;7.07;;;5.70;;
49502;SDS011;35409;48.776;9.204;2023-06-10T02:44:17;6.25;;;5.65;;
49502;SDS011;35409;48.776;9.204;2023-06-10T02:46:43;6.95;;;6.22;;
49502;SDS011;35409;48.776;9.204;2023-06-10T02:49:08;8.07;;;6.30;;
49502;SDS011;35409;48.776;9.204;2023-06-10T02:51:34;6.30;;;5.70;;
49502;SDS011;35409;48.776;9.204;2023-06-10T02:54:01;7.90;;;5.93;;
49502;SDS011;35409;48.776;9.204;2023-06-10T02:56:26;6.53;;;5.82;;
49502;SDS011;35409;48.776;9.204;2023-06-10T02:58:52;6.72;;;5.50;;
49502;SDS011;35409;48.776;9.204;2023-06-10T03:01:18;7.35;;;6.32;;
49502;SDS011;35409;48.776;9.204;2023-06-10T03:03:44;8.02;;;5.72;;
49502;SDS011;35409;48.776;9.204;2023-06-10T03:06:11;6.82;;;6.13;;
49502;SDS011;35409;48.776;9.204;2023-06-10T03:08:37;7.70;;;5.68;;
49502;SDS011;35409;48.776;9.204;2023-06-10T03:11:03;6.88;;;5.63;;
49502;SDS011;35409;48.776;9.204;2023-06-10T03:13:30;8.70;;;5.90;;
49502;SDS011;35409;48.776;9.204;2023-06-10T03:15:56;9.00;;;6.10;;
49502;SDS011;35409;48.776;9.204;2023-06-10T03:18:25;7.28;;;6.25;;
49502;SDS011;35409;48.776;9.204;2023-06-10T03:20:51;6.50;;;5.90;;
49502;SDS011;35409;48.776;9.204;2023-06-10T03:23:17;6.93;;;6.18;;
49502;SDS011;35409;48.776;9.204;2023-06-10T03:25:44;7.70;;;5.80;;
49502;SDS011;35409;48.776;9.204;2023-06-10T03:28:10;8.48;;;6.00;;
49502;SDS011;35409;48.776;9.204;2023-06-10T03:30:36;7.03;;;6.32;;
49502;SDS011;35409;48.776;9.204;2023-06-10T03:33:02;6.65;;;6.00;;
49502;SDS011;35409;48.776;9.204;2023-06-10T03:35:29;7.97;;;5.75;;
49502;SDS011;35409;48.776;9.204;2023-06-10T03:37:56;6.72;;;5.68;;
49502;SDS011;35409;48.776;9.204;2023-06-10T03:40:22;6.32;;;5.70;;
49502;SDS011;35409;48.776;9.204;2023-06-10T03:42:48;6.55;;;5.88;;
49502;SDS011;35409;48.776;9.204;2023-06-10T03:45:14;8.85;;;6.30;;
49502;SDS011;35409;48.776;9.204;2023-06-10T03:47:40;6.82;;;6.22;;
49502;SDS011;35409;48.776;9.204;2023-06-10T03:50:08;8.43;;;6.50;;
49502;SDS011;35409;48.776;9.204;2023-06-10T03:52:35;7.43;;;6.22;;
49502;SDS011;35409;48.776;9.204;2023-06-10T03:55:01;7.88;;;6.00;;
49502;SDS011;35409;48.776;9.204;2023-06-10T03:57:27;6.78;;;5.93;;
49502;SDS011;35409;48.776;9.204;2023-06-10T03:59:53;5.90;;;5.32;;
49502;SDS011;35409;48.776;9.204;2023-06-10T04:02:20;7.22;;;6.22;;
49502;SDS011;35409;48.776;9.204;2023-06-10T04:04:46;9.55;;;5.93;;
49502;SDS011;35409;48.776;9.204;2023-06-10T04:07:12;6.22;;;5.53;;
49502;SDS011;35409;48.776;9.204;2023-06-10T04:09:38;7.35;;;5.80;;
49502;SDS011;35409;48.776;9.204;2023-06-10T04:12:04;8.02;;;6.45;;
49502;SDS011;35409;48.776;9.204;2023-06-10T04:14:33;6.18;;;5.57;;
49502;SDS011;35409;48.776;9.204;2023-06-10T04:17:01;8.35;;;6.30;;
49502;SDS011;35409;48.776;9.204;2023-06-10T04:19:27;6.68;;;5.93;;
49502;SDS011;35409;48.776;9.204;2023-06-10T04:21:54;6.00;;;5.40;;
49502;SDS011;35409;48.776;9.204;2023-06-10T04:24:20;6.22;;;5.63;;
49502;SDS011;35409;48.776;9.204;2023-06-10T04:26:46;6.28;;;5.35;;
49502;SDS011;35409;48.776;9.204;2023-06-10T04:29:11;5.72;;;5.05;;
49502;SDS011;35409;48.776;9.204;2023-06-10T04:31:37;6.00;;;5.43;;
49502;SDS011;35409;48.776;9.204;2023-06-10T04:34:03;6.40;;;5.28;;
49502;SDS011;35409;48.776;9.204;2023-06-10T04:36:29;6.85;;;5.45;;
49502;SDS011;35409;48.776;9.204;2023-06-10T04:38:55;6.50;;;5.80;;
49502;SDS011;35409;48.776;9.204;2023-06-10T04:41:21;6.82;;;6.07;;
49502;SDS011;35409;48.776;9.204;2023-06-10T04:43:47;8.35;;;6.03;;
49502;SDS011;35409;48.776;9.204;2023-06-10T04:46:13;7.13;;;5.63;;
49502;SDS011;35409;48.776;9.204;2023-06-10T04:48:39;6.72;;;5.63;;
49502;SDS011;35409;48.776;9.204;2023-06-10T04:51:07;5.82;;;5.22;;
49502;SDS011;35409;48.776;9.204;2023-06-10T04:53:33;6.32;;;5.50;;
49502;SDS011;35409;48.776;9.204;2023-06-10T04:55:59;5.35;;;4.85;;
49502;SDS011;35409;48.776;9.204;2023-06-10T04:58:25;5.78;;;5.18;;
49502;SDS011;35409;48.776;9.204;2023-06-10T05:00:51;6.07;;;5.47;;
49502;SDS011;35409;48.776;9.204;2023-06-10T05:03:17;6.50;;;5.68;;
49502;SDS011;35409;48.776;9.204;2023-06-10T05:05:43;6.70;;;6.00;;
49502;SDS011;35409;48.776;9.204;2023-06-10T05:08:09;6.78;;;5.72;;
49502;SDS011;35409;48.776;9.204;2023-06-10T05:10:35;6.65;;;5.20;;
49502;SDS011;35409;48.776;9.204;2023-06-10T05:13:01;8.13;;;6.00;;
49502;SDS011;35409;48.776;9.204;2023-06-10T05:15:28;6.03;;;5.43;;
49502;SDS011;35409;48.776;9.204;2023-06-10T05:17:56;6.68;;;5.63;;
49502;SDS011;35409;48.776;9.204;2023-06-10T05:20:23;6.30;;;5.68;;
49502;SDS011;35409;48.776;9.204;2023-06-10T05:22:50;6.55;;;5.80;;
49502;SDS011;35409;48.776;9.204;2023-06-10T05:25:16;5.45;;;4.93;;
49502;SDS011;35409;48.776;9.204;2023-06-10T05:27:42;6.18;;;5.57;;
49502;SDS011;35409;48.776;9.204;2023-06-10T05:30:09;6.90;;;6.20;;
49502;SDS011;35409;48.776;9.204;2023-06-10T05:32:36;6.28;;;5.53;;
49502;SDS011;35409;48.776;9.204;2023-06-10T05:35:02;6.57;;;5.65;;
49502;SDS011;35409;48.776;9.204;2023-06-10T05:37:29;6.07;;;5.47;;
49502;SDS011;35409;48.776;9.204;2023-06-10T05:39:55;6.82;;;6.13;;
49502;SDS011;35409;48.776;9.204;2023-06-10T05:42:21;6.15;;;5.50;;
49502;SDS011;35409;48.776;9.204;2023-06-10T05:44:47;6.30;;;5.70;;
49502;SDS011;35409;48.776;9.204;2023-06-10T05:47:13;9.45;;;7.07;;
49502;SDS011;35409;48.776;9.204;2023-06-10T05:49:39;7.28;;;6.20;;
49502;SDS011;35409;48.776;9.204;2023-06-10T05:52:05;8.30;;;7.13;;
49502;SDS011;35409;48.776;9.204;2023-06-10T05:54:31;9.05;;;6.53;;
49502;SDS011;35409;48.776;9.204;2023-06-10T05:56:57;10.88;;;6.75;;
49502;SDS011;35409;48.776;9.204;2023-06-10T05:59:23;6.10;;;5.50;;
49502;SDS011;35409;48.776;9.204;2023-06-10T06:01:49;7.15;;;5.45;;
49502;SDS011;35409;48.776;9.204;2023-06-10T06:04:16;5.75;;;5.13;;
49502;SDS011;35409;48.776;9.204;2023-06-10T06:06:42;6.68;;;5.85;;
49502;SDS011;35409;48.776;9.204;2023-06-10T06:09:08;6.90;;;5.90;;
49502;SDS011;35409;48.776;9.204;2023-06-10T06:11:34;7.30;;;5.82;;
49502;SDS011;35409;48.776;9.204;2023-06-10T06:14:00;6.32;;;5.72;;
49502;SDS011;35409;48.776;9.204;2023-06-10T06:16:26;6.07;;;5.45;;
49502;SDS011;35409;48.776;9.204;2023-06-10T06:18:52;5.60;;;5.10;;
49502;SDS011;35409;48.776;9.204;2023-06-10T06:21:21;6.72;;;6.03;;
49502;SDS011;35409;48.776;9.204;2023-06-10T06:23:50;7.95;;;5.80;;
49502;SDS011;35409;48.776;9.204;2023-06-10T06:26:16;6.35;;;5.75;;
49502;SDS011;35409;48.776;9.204;2023-06-10T06:28:42;6.15;;;5.60;;
49502;SDS011;35409;48.776;9.204;2023-06-10T06:31:08;6.22;;;5.30;;
49502;SDS011;35409;48.776;9.204;2023-06-10T06:33:34;6.25;;;5.65;;
49502;SDS011;35409;48.776;9.204;2023-06-10T06:35:59;5.95;;;5.38;;
49502;SDS011;35409;48.776;9.204;2023-06-10T06:38:26;7.30;;;5.20;;
49502;SDS011;35409;48.776;9.204;2023-06-10T06:40:52;7.47;;;5.70;;
49502;SDS011;35409;48.776;9.204;2023-06-10T06:43:18;7.45;;;5.60;;
49502;SDS011;35409;48.776;9.204;2023-06-10T06:45:44;6.55;;;5.70;;
49502;SDS011;35409;48.776;9.204;2023-06-10T06:48:10;6.72;;;5.57;;
49502;SDS011;35409;48.776;9.204;2023-06-10T06:50:37;5.90;;;5.30;;
49502;SDS011;35409;48.776;9.204;2023-06-10T06:53:03;7.72;;;5.80;;
49502;SDS011;35409;48.776;9.204;2023-06-10T06:55:29;7.05;;;5.53;;
49502;SDS011;35409;48.776;9.204;2023-06-10T06:57:55;6.45;;;5.50;;
49502;SDS011;35409;48.776;9.204;2023-06-10T07:00:21;5.80;;;5.28;;
49502;SDS011;35409;48.776;9.204;2023-06-10T07:02:48;6.30;;;5.70;;
49502;SDS011;35409;48.776;9.204;2023-06-10T07:05:14;22.40;;;12.80;;
49502;SDS011;35409;48.776;9.204;2023-06-10T07:07:40;6.28;;;5.70;;
49502;SDS011;35409;48.776;9.204;2023-06-10T07:10:06;6.55;;;5.43;;
49502;SDS011;35409;48.776;9.204;2023-06-10T07:12:32;5.97;;;5.38;;
49502;SDS011;35409;48.776;9.204;2023-06-10T07:14:58;8.23;;;5.50;;
49502;SDS011;35409;48.776;9.204;2023-06-10T07:17:24;6.70;;;5.40;;
49502;SDS011;35409;48.776;9.204;2023-06-10T07:19:51;5.57;;;5.07;;
49502;SDS011;35409;48.776;9.204;2023-06-10T07:22:17;6.82;;;5.40;;
49502;SDS011;35409;48.776;9.204;2023-06-10T07:24:43;5.97;;;5.38;;
49502;SDS011;35409;48.776;9.204;2023-06-10T07:27:09;7.55;;;5.47;;
49502;SDS011;35409;48.776;9.204;2023-06-10T07:29:35;5.88;;;5.28;;
49502;SDS011;35409;48.776;9.204;2023-06-10T07:32:02;6.50;;;5.45;;
49502;SDS011;35409;48.776;9.204;2023-06-10T07:34:28;6.30;;;5.60;;
49502;SDS011;35409;48.776;9.204;2023-06-10T07:36:54;6.18;;;5.60;;
49502;SDS011;35409;48.776;9.204;2023-06-10T07:39:19;6.57;;;5.85;;
49502;SDS011;35409;48.776;9.204;2023-06-10T07:41:45;7.00;;;4.95;;
49502;SDS011;35409;48.776;9.204;2023-06-10T07:44:10;6.20;;;5.60;;
49502;SDS011;35409;48.776;9.204;2023-06-10T07:46:36;7.00;;;6.28;;
49502;SDS011;35409;48.776;9.204;2023-06-10T07:49:01;6.93;;;5.93;;
49502;SDS011;35409;48.776;9.204;2023-06-10T07:51:27;6.88;;;5.20;;
49502;SDS011;35409;48.776;9.204;2023-06-10T07:53:53;6.53;;;5.38;;
49502;SDS011;35409;48.776;9.204;2023-06-10T07:56:18;6.60;;;5.75;;
49502;SDS011;35409;48.776;9.204;2023-06-10T07:58:45;6.97;;;6.35;;
49502;SDS011;35409;48.776;9.204;2023-06-10T08:01:11;7.75;;;6.47;;
49502;SDS011;35409;48.776;9.204;2023-06-10T08:03:36;6.43;;;5.80;;
49502;SDS011;35409;48.776;9.204;2023-06-10T08:06:02;10.18;;;5.88;;
49502;SDS011;35409;48.776;9.204;2023-06-10T08:08:28;6.53;;;5.90;;
49502;SDS011;35409;48.776;9.204;2023-06-10T08:10:53;6.25;;;5.65;;
49502;SDS011;35409;48.776;9.204;2023-06-10T08:13:19;6.13;;;5.53;;
49502;SDS011;35409;48.776;9.204;2023-06-10T08:15:44;5.97;;;5.47;;
49502;SDS011;35409;48.776;9.204;2023-06-10T08:18:12;6.20;;;5.60;;
49502;SDS011;35409;48.776;9.204;2023-06-10T08:20:38;6.10;;;5.28;;
49502;SDS011;35409;48.776;9.204;2023-06-10T08:23:03;5.97;;;5.47;;
49502;SDS011;35409;48.776;9.204;2023-06-10T08:25:29;6.05;;;5.25;;
49502;SDS011;35409;48.776;9.204;2023-06-10T08:27:55;5.50;;;5.00;;
49502;SDS011;35409;48.776;9.204;2023-06-10T08:30:22;8.10;;;5.80;;
49502;SDS011;35409;48.776;9.204;2023-06-10T08:32:48;5.22;;;4.82;;
49502;SDS011;35409;48.776;9.204;2023-06-10T08:35:13;5.35;;;4.85;;
49502;SDS011;35409;48.776;9.204;2023-06-10T08:37:39;5.78;;;5.25;;
49502;SDS011;35409;48.776;9.204;2023-06-10T08:40:05;7.10;;;5.28;;
49502;SDS011;35409;48.776;9.204;2023-06-10T08:42:33;6.28;;;5.00;;
49502;SDS011;35409;48.776;9.204;2023-06-10T08:45:04;4.90;;;4.50;;
49502;SDS011;35409;48.776;9.204;2023-06-10T08:47:31;5.20;;;4.70;;
49502;SDS011;35409;48.776;9.204;2023-06-10T08:50:04;4.88;;;4.35;;
49502;SDS011;35409;48.776;9.204;2023-06-10T08:52:35;8.50;;;5.00;;
49502;SDS011;35409;48.776;9.204;2023-06-10T08:55:15;5.38;;;4.25;;
49502;SDS011;35409;48.776;9.204;2023-06-10T08:57:51;5.22;;;4.72;;
49502;SDS011;35409;48.776;9.204;2023-06-10T09:00:17;5.10;;;4.70;;
49502;SDS011;35409;48.776;9.204;2023-06-10T09:02:44;9.43;;;4.40;;
49502;SDS011;35409;48.776;9.204;2023-06-10T09:05:10;4.65;;;4.25;;
49502;SDS011;35409;48.776;9.204;2023-06-10T09:07:36;5.78;;;4.75;;
49502;SDS011;35409;48.776;9.204;2023-06-10T09:10:02;5.28;;;4.47;;
49502;SDS011;35409;48.776;9.204;2023-06-10T09:12:28;4.82;;;4.43;;
49502;SDS011;35409;48.776;9.204;2023-06-10T09:14:54;4.95;;;4.32;;
49502;SDS011;35409;48.776;9.204;2023-06-10T09:17:21;5.07;;;4.57;;
49502;SDS011;35409;48.776;9.204;2023-06-10T09:19:47;4.88;;;4.43;;
49502;SDS011;35409;48.776;9.204;2023-06-10T09:22:13;7.25;;;4.72;;
49502;SDS011;35409;48.776;9.204;2023-06-10T09:24:39;5.40;;;4.22;;
49502;SDS011;35409;48.776;9.204;2023-06-10T09:27:06;6.43;;;4.65;;
49502;SDS011;35409;48.776;9.204;2023-06-10T09:29:52;5.38;;;4.90;;
49502;SDS011;35409;48.776;9.204;2023-06-10T09:32:18;6.70;;;4.63;;
49502;SDS011;35409;48.776;9.204;2023-06-10T09:34:45;4.50;;;4.20;;
49502;SDS011;35409;48.776;9.204;2023-06-10T09:37:11;5.20;;;4.70;;
49502;SDS011;35409;48.776;9.204;2023-06-10T09:39:38;4.75;;;4.35;;
49502;SDS011;35409;48.776;9.204;2023-06-10T09:42:17;5.40;;;4.38;;
49502;SDS011;35409;48.776;9.204;2023-06-10T09:44:49;5.03;;;4.40;;
49502;SDS011;35409;48.776;9.204;2023-06-10T09:47:19;6.00;;;4.57;;
49502;SDS011;35409;48.776;9.204;2023-06-10T09:49:50;5.00;;;4.50;;
49502;SDS011;35409;48.776;9.204;2023-06-10T09:52:27;4.75;;;4.32;;
49502;SDS011;35409;48.776;9.204;2023-06-10T09:54:58;5.55;;;4.57;;
49502;SDS011;35409;48.776;9.204;2023-06-10T09:57:25;5.78;;;4.90;;
49502;SDS011;35409;48.776;9.204;2023-06-10T09:59:54;5.07;;;4.68;;
49502;SDS011;35409;48.776;9.204;2023-06-10T10:02:20;6.20;;;4.77;;
49502;SDS011;35409;48.776;9.204;2023-06-10T10:04:46;4.68;;;4.28;;
49502;SDS011;35409;48.776;9.204;2023-06-10T10:07:12;4.85;;;4.45;;
49502;SDS011;35409;48.776;9.204;2023-06-10T10:09:40;4.90;;;4.53;;
49502;SDS011;35409;48.776;9.204;2023-06-10T10:12:11;4.85;;;4.43;;
49502;SDS011;35409;48.776;9.204;2023-06-10T10:14:38;5.82;;;4.68;;
49502;SDS011;35409;48.776;9.204;2023-06-10T10:17:06;5.85;;;5.35;;
49502;SDS011;35409;48.776;9.204;2023-06-10T10:19:35;5.47;;;4.97;;
49502;SDS011;35409;48.776;9.204;2023-06-10T10:22:08;6.97;;;5.00;;
49502;SDS011;35409;48.776;9.204;2023-06-10T10:25:13;5.32;;;4.82;;
49502;SDS011;35409;48.776;9.204;2023-06-10T10:27:44;5.00;;;4.50;;
49502;SDS011;35409;48.776;9.204;2023-06-10T10:30:25;5.35;;;4.80;;
49502;SDS011;35409;48.776;9.204;2023-06-10T10:35:21;4.82;;;3.85;;
49502;SDS011;35409;48.776;9.204;2023-06-10T10:37:48;5.43;;;4.60;;
49502;SDS011;35409;48.776;9.204;2023-06-10T10:40:15;5.30;;;4.75;;
49502;SDS011;35409;48.776;9.204;2023-06-10T10:42:41;7.18;;;4.22;;
49502;SDS011;35409;48.776;9.204;2023-06-10T10:45:08;5.63;;;3.63;;
49502;SDS011;35409;48.776;9.204;2023-06-10T10:47:34;4.35;;;3.95;;
49502;SDS011;35409;48.776;9.204;2023-06-10T10:50:12;4.50;;;4.07;;
49502;SDS011;35409;48.776;9.204;2023-06-10T10:52:53;5.43;;;4.15;;
49502;SDS011;35409;48.776;9.204;2023-06-10T10:55:21;6.03;;;3.75;;
49502;SDS011;35409;48.776;9.204;2023-06-10T10:57:54;9.60;;;4.57;;
49502;SDS011;35409;48.776;9.204;2023-06-10T11:00:25;4.30;;;4.00;;
49502;SDS011;35409;48.776;9.204;2023-06-10T11:02:52;4.82;;;4.30;;
49502;SDS011;35409;48.776;9.204;2023-06-10T11:05:30;4.88;;;4.18;;
49502;SDS011;35409;48.776;9.204;2023-06-10T11:08:03;4.93;;;4.05;;
49502;SDS011;35409;48.776;9.204;2023-06-10T11:10:33;6.53;;;4.65;;
49502;SDS011;35409;48.776;9.204;2023-06-10T11:13:09;6.32;;;4.65;;
49502;SDS011;35409;48.776;9.204;2023-06-10T11:15:45;4.57;;;4.28;;
49502;SDS011;35409;48.776;9.204;2023-06-10T11:20:51;5.35;;;4.85;;
49502;SDS011;35409;48.776;9.204;2023-06-10T11:26:43;4.95;;;4.45;;
49502;SDS011;35409;48.776;9.204;2023-06-10T11:33:47;4.45;;;3.97;;
49502;SDS011;35409;48.776;9.204;2023-06-10T11:36:13;4.78;;;4.38;;
49502;SDS011;35409;48.776;9.204;2023-06-10T11:38:40;5.53;;;4.10;;
49502;SDS011;35409;48.776;9.204;2023-06-10T11:41:06;4.47;;;4.03;;
49502;SDS011;35409;48.776;9.204;2023-06-10T11:43:33;4.30;;;4.00;;
49502;SDS011;35409;48.776;9.204;2023-06-10T11:45:59;4.45;;;4.00;;
49502;SDS011;35409;48.776;9.204;2023-06-10T11:48:25;4.28;;;3.67;;
49502;SDS011;35409;48.776;9.204;2023-06-10T11:50:53;4.85;;;4.43;;
49502;SDS011;35409;48.776;9.204;2023-06-10T11:53:19;4.45;;;4.05;;
49502;SDS011;35409;48.776;9.204;2023-06-10T11:55:45;5.15;;;4.75;;
49502;SDS011;35409;48.776;9.204;2023-06-10T11:58:21;5.05;;;4.65;;
49502;SDS011;35409;48.776;9.204;2023-06-10T12:03:14;5.47;;;4.20;;
49502;SDS011;35409;48.776;9.204;2023-06-10T12:05:40;6.03;;;4.47;;
49502;SDS011;35409;48.776;9.204;2023-06-10T12:08:18;4.63;;;4.15;;
49502;SDS011;35409;48.776;9.204;2023-06-10T12:10:43;5.38;;;4.28;;
49502;SDS011;35409;48.776;9.204;2023-06-10T12:13:09;6.40;;;4.30;;
49502;SDS011;35409;48.776;9.204;2023-06-10T12:15:35;5.70;;;4.40;;
49502;SDS011;35409;48.776;9.204;2023-06-10T12:18:01;5.82;;;4.22;;
49502;SDS011;35409;48.776;9.204;2023-06-10T12:20:28;5.13;;;4.72;;
49502;SDS011;35409;48.776;9.204;2023-06-10T12:22:57;4.70;;;4.30;;
49502;SDS011;35409;48.776;9.204;2023-06-10T12:25:26;5.13;;;3.88;;
49502;SDS011;35409;48.776;9.204;2023-06-10T12:27:55;4.68;;;3.80;;
49502;SDS011;35409;48.776;9.204;2023-06-10T12:30:23;4.18;;;3.80;;
49502;SDS011;35409;48.776;9.204;2023-06-10T12:32:50;4.72;;;4.32;;
49502;SDS011;35409;48.776;9.204;2023-06-10T12:35:18;4.28;;;3.97;;
49502;SDS011;35409;48.776;9.204;2023-06-10T12:38:04;6.13;;;3.58;;
49502;SDS011;35409;48.776;9.204;2023-06-10T12:40:34;4.30;;;4.00;;
49502;SDS011;35409;48.776;9.204;2023-06-10T12:43:02;5.15;;;4.35;;
49502;SDS011;35409;48.776;9.204;2023-06-10T12:45:29;4.50;;;4.10;;
49502;SDS011;35409;48.776;9.204;2023-06-10T12:50:54;4.82;;;4.40;;
49502;SDS011;35409;48.776;9.204;2023-06-10T12:53:21;4.13;;;3.72;;
49502;SDS011;35409;48.776;9.204;2023-06-10T12:55:48;4.57;;;4.18;;
49502;SDS011;35409;48.776;9.204;2023-06-10T12:58:14;5.05;;;4.03;;
49502;SDS011;35409;48.776;9.204;2023-06-10T13:00:40;3.78;;;3.47;;
49502;SDS011;35409;48.776;9.204;2023-06-10T13:03:07;4.15;;;3.85;;
49502;SDS011;35409;48.776;9.204;2023-06-10T13:05:35;4.43;;;4.00;;
49502;SDS011;35409;48.776;9.204;2023-06-10T13:08:02;4.78;;;4.10;;
49502;SDS011;35409;48.776;9.204;2023-06-10T13:10:28;4.03;;;3.72;;
49502;SDS011;35409;48.776;9.204;2023-06-10T13:12:53;4.35;;;3.95;;
49502;SDS011;35409;48.776;9.204;2023-06-10T13:15:19;4.35;;;4.05;;
49502;SDS011;35409;48.776;9.204;2023-06-10T13:17:45;5.93;;;3.92;;
49502;SDS011;35409;48.776;9.204;2023-06-10T13:20:14;4.32;;;3.92;;
49502;SDS011;35409;48.776;9.204;2023-06-10T13:22:43;4.55;;;4.00;;
49502;SDS011;35409;48.776;9.204;2023-06-10T13:25:09;8.15;;;4.47;;
49502;SDS011;35409;48.776;9.204;2023-06-10T13:27:35;4.05;;;3.75;;
49502;SDS011;35409;48.776;9.204;2023-06-10T13:30:03;4.07;;;3.77;;
49502;SDS011;35409;48.776;9.204;2023-06-10T13:32:30;5.13;;;4.15;;
49502;SDS011;35409;48.776;9.204;2023-06-10T13:34:56;4.05;;;3.70;;
49502;SDS011;35409;48.776;9.204;2023-06-10T13:37:22;3.67;;;3.47;;
49502;SDS011;35409;48.776;9.204;2023-06-10T13:39:47;4.68;;;3.40;;
49502;SDS011;35409;48.776;9.204;2023-06-10T13:42:15;3.67;;;3.42;;
49502;SDS011;35409;48.776;9.204;2023-06-10T13:44:44;4.47;;;3.50;;
49502;SDS011;35409;48.776;9.204;2023-06-10T13:47:10;6.57;;;3.42;;
49502;SDS011;35409;48.776;9.204;2023-06-10T13:49:36;4.30;;;3.97;;
49502;SDS011;35409;48.776;9.204;2023-06-10T13:52:02;4.78;;;4.20;;
49502;SDS011;35409;48.776;9.204;2023-06-10T13:54:28;4.40;;;4.10;;
49502;SDS011;35409;48.776;9.204;2023-06-10T13:56:53;4.68;;;3.78;;
49502;SDS011;35409;48.776;9.204;2023-06-10T13:59:19;4.07;;;3.78;;
49502;SDS011;35409;48.776;9.204;2023-06-10T14:01:46;4.03;;;3.72;;
49502;SDS011;35409;48.776;9.204;2023-06-10T14:04:12;4.30;;;3.88;;
49502;SDS011;35409;48.776;9.204;2023-06-10T14:06:37;3.33;;;3.03;;
49502;SDS011;35409;48.776;9.204;2023-06-10T14:09:03;3.75;;;3.45;;
49502;SDS011;35409;48.776;9.204;2023-06-10T14:11:29;5.45;;;3.67;;
49502;SDS011;35409;48.776;9.204;2023-06-10T14:13:56;7.13;;;3.70;;
49502;SDS011;35409;48.776;9.204;2023-06-10T14:16:22;4.03;;;3.50;;
49502;SDS011;35409;48.776;9.204;2023-06-10T14:18:48;3.53;;;3.22;;
49502;SDS011;35409;48.776;9.204;2023-06-10T14:21:15;4.10;;;3.28;;
49502;SDS011;35409;48.776;9.204;2023-06-10T14:23:41;4.07;;;3.72;;
49502;SDS011;35409;48.776;9.204;2023-06-10T14:26:08;4.93;;;3.53;;
49502;SDS011;35409;48.776;9.204;2023-06-10T14:28:34;3.90;;;3.55;;
49502;SDS011;35409;48.776;9.204;2023-06-10T14:31:00;4.88;;;3.15;;
49502;SDS011;35409;48.776;9.204;2023-06-10T14:33:26;3.35;;;3.15;;
49502;SDS011;35409;48.776;9.204;2023-06-10T14:35:51;4.60;;;3.30;;
49502;SDS011;35409;48.776;9.204;2023-06-10T14:38:17;4.15;;;3.70;;
49502;SDS011;35409;48.776;9.204;2023-06-10T14:40:43;4.50;;;3.38;;
49502;SDS011;35409;48.776;9.204;2023-06-10T14:43:08;4.10;;;3.72;;
49502;SDS011;35409;48.776;9.204;2023-06-10T14:45:38;4.22;;;3.92;;
49502;SDS011;35409;48.776;9.204;2023-06-10T14:50:31;5.72;;;4.25;;
49502;SDS011;35409;48.776;9.204;2023-06-10T14:52:57;4.72;;;4.00;;
49502;SDS011;35409;48.776;9.204;2023-06-10T14:55:23;3.70;;;3.40;;
49502;SDS011;35409;48.776;9.204;2023-06-10T14:57:49;5.20;;;4.70;;
49502;SDS011;35409;48.776;9.204;2023-06-10T15:00:15;4.47;;;3.78;;
49502;SDS011;35409;48.776;9.204;2023-06-10T15:02:44;4.32;;;4.03;;
49502;SDS011;35409;48.776;9.204;2023-06-10T15:05:12;4.25;;;3.45;;
49502;SDS011;35409;48.776;9.204;2023-06-10T15:07:40;4.45;;;3.90;;
49502;SDS011;35409;48.776;9.204;2023-06-10T15:10:06;4.15;;;3.72;;
49502;SDS011;35409;48.776;9.204;2023-06-10T15:12:31;4.60;;;4.20;;
49502;SDS011;35409;48.776;9.204;2023-06-10T15:14:57;4.53;;;4.22;;
49502;SDS011;35409;48.776;9.204;2023-06-10T15:17:23;4.78;;;4.38;;
49502;SDS011;35409;48.776;9.204;2023-06-10T15:19:48;7.93;;;4.32;;